createdAt,value
2022-12-19T00:01:18.737Z,102999.75
2022-12-19T00:04:35.598Z,103000.75
2022-12-19T00:07:59.702Z,103003.13
2022-12-19T00:11:19.727Z,103013.88
2022-12-19T00:14:41.609Z,103012.09
2022-12-19T00:18:04.755Z,103008.56
2022-12-19T00:21:28.630Z,103010.13
2022-12-19T00:24:49.687Z,103005.78
2022-12-19T00:28:12.614Z,103011.09
2022-12-19T00:31:23.830Z,103013.63
2022-12-19T00:34:46.610Z,103008.72
2022-12-19T00:38:14.564Z,103006.19
2022-12-19T00:41:41.734Z,103014.13
2022-12-19T00:44:55.700Z,103011.94
2022-12-19T00:48:21.539Z,103004.97
2022-12-19T00:51:40.803Z,103007.66
2022-12-19T00:55:02.902Z,103005.97
2022-12-19T00:58:19.740Z,102999.69
2022-12-19T01:01:30.873Z,102992.28
2022-12-19T01:04:39.858Z,102993.38
2022-12-19T01:07:52.641Z,102998.25
2022-12-19T01:11:12.271Z,102996.00
2022-12-19T01:14:28.553Z,102994.59
2022-12-19T01:17:49.471Z,102985.25
2022-12-19T01:21:01.127Z,102985.09
2022-12-19T01:24:10.512Z,102979.69
2022-12-19T01:27:20.812Z,102972.00
2022-12-19T01:30:24.733Z,102965.34
2022-12-19T01:33:43.075Z,102957.34
2022-12-19T01:36:48.914Z,102947.81
2022-12-19T01:39:52.596Z,102943.16
2022-12-19T01:43:15.678Z,102949.84
2022-12-19T01:46:40.437Z,102936.41
2022-12-19T01:49:45.431Z,102933.91
2022-12-19T01:52:53.092Z,102936.69
2022-12-19T01:56:20.849Z,102941.94
2022-12-19T01:59:43.569Z,102934.69
2022-12-19T02:02:58.027Z,102924.59
2022-12-19T02:06:08.999Z,102930.91
2022-12-19T02:09:28.636Z,102932.56
2022-12-19T02:12:48.520Z,102941.25
2022-12-19T02:16:34.318Z,102944.44
2022-12-19T02:20:13.592Z,102940.66
2022-12-19T02:24:00.602Z,102939.59
2022-12-19T02:27:54.673Z,102945.97
2022-12-19T02:31:34.282Z,102947.78
2022-12-19T02:35:18.258Z,102947.03
2022-12-19T02:38:50.230Z,102947.63
2022-12-19T02:42:20.503Z,102943.91
2022-12-19T02:45:42.742Z,102954.59
2022-12-19T02:48:59.440Z,102951.66
2022-12-19T02:52:26.494Z,102961.69
2022-12-19T02:55:57.586Z,102962.28
2022-12-19T02:59:21.684Z,102961.03
2022-12-19T03:02:49.302Z,102951.22
2022-12-19T03:06:18.933Z,102948.53
2022-12-19T03:09:46.831Z,102939.88
2022-12-19T03:13:34.240Z,102936.38
2022-12-19T03:16:52.479Z,102940.22
2022-12-19T03:20:15.957Z,102930.41
2022-12-19T03:23:37.911Z,102918.00
2022-12-19T03:27:03.383Z,102914.00
2022-12-19T03:30:20.949Z,102917.72
2022-12-19T03:33:42.128Z,102907.47
2022-12-19T03:37:10.108Z,102907.47
2022-12-19T03:40:28.062Z,102904.66
2022-12-19T03:43:50.984Z,102921.50
2022-12-19T03:47:17.308Z,102910.19
2022-12-19T03:50:42.461Z,102915.88
2022-12-19T03:54:14.230Z,102923.25
2022-12-19T03:57:54.609Z,102924.25
2022-12-19T04:00:58.666Z,102925.31
2022-12-19T04:04:07.897Z,102925.31
2022-12-19T04:07:28.185Z,102916.25
2022-12-19T04:10:58.165Z,102912.22
2022-12-19T04:14:20.173Z,102914.41
2022-12-19T04:18:01.260Z,102922.19
2022-12-19T04:21:14.382Z,102916.25
2022-12-19T04:24:32.744Z,102920.25
2022-12-19T04:27:55.583Z,102923.53
2022-12-19T04:30:59.321Z,102916.94
2022-12-19T04:34:23.116Z,102924.69
2022-12-19T04:37:50.102Z,102926.06
2022-12-19T04:40:53.187Z,102924.13
2022-12-19T04:43:56.145Z,102914.72
2022-12-19T04:47:09.648Z,102919.38
2022-12-19T04:50:29.515Z,102912.28
2022-12-19T04:53:42.426Z,102911.69
2022-12-19T04:56:53.388Z,102925.16
2022-12-19T04:59:58.497Z,102922.09
2022-12-19T05:03:05.650Z,102924.59
2022-12-19T05:06:23.141Z,102913.19
2022-12-19T05:09:46.035Z,102912.56
2022-12-19T05:13:03.773Z,102923.53
2022-12-19T05:16:15.169Z,102923.59
2022-12-19T05:19:22.148Z,102926.41
2022-12-19T05:22:35.875Z,102917.59
2022-12-19T05:26:23.267Z,102918.13
2022-12-19T05:29:27.088Z,102913.41
2022-12-19T05:32:38.525Z,102912.56
2022-12-19T05:35:59.658Z,102903.53
2022-12-19T05:39:20.452Z,102901.06
2022-12-19T05:42:36.907Z,102909.97
2022-12-19T05:45:57.726Z,102924.44
2022-12-19T05:49:18.421Z,102916.06
2022-12-19T05:52:42.743Z,102901.06
2022-12-19T05:56:15.732Z,102902.06
2022-12-19T05:59:35.602Z,102899.44
2022-12-19T06:02:58.774Z,102903.75
2022-12-19T06:06:26.270Z,102899.63
2022-12-19T06:09:43.163Z,102916.09
2022-12-19T06:12:53.531Z,102921.91
2022-12-19T06:15:59.925Z,102918.13
2022-12-19T06:19:22.697Z,102915.31
2022-12-19T06:22:39.625Z,102926.25
2022-12-19T06:25:49.359Z,102928.53
2022-12-19T06:29:14.603Z,102917.88
2022-12-19T06:32:38.385Z,102924.56
2022-12-19T06:35:57.467Z,102929.00
2022-12-19T06:39:20.300Z,102937.59
2022-12-19T06:42:36.949Z,102929.50
2022-12-19T06:45:54.750Z,102933.03
2022-12-19T06:49:40.990Z,102934.72
2022-12-19T06:53:15.410Z,102930.88
2022-12-19T06:56:20.378Z,102937.09
2022-12-19T06:59:26.932Z,102925.09
2022-12-19T07:02:42.712Z,102931.72
2022-12-19T07:06:04.750Z,102941.91
2022-12-19T07:09:40.573Z,102941.66
2022-12-19T07:12:54.589Z,102942.69
2022-12-19T07:16:14.581Z,102939.97
2022-12-19T07:19:26.293Z,102949.38
2022-12-19T07:22:35.100Z,102945.34
2022-12-19T07:25:42.363Z,102942.56
2022-12-19T07:28:49.384Z,102939.50
2022-12-19T07:32:03.748Z,102941.66
2022-12-19T07:35:10.324Z,102947.38
2022-12-19T07:38:14.937Z,102947.97
2022-12-19T07:41:37.468Z,102942.69
2022-12-19T07:45:43.854Z,102934.41
2022-12-19T07:49:01.078Z,102936.53
2022-12-19T07:52:16.038Z,102940.53
2022-12-19T07:55:25.779Z,102947.50
2022-12-19T07:58:31.891Z,102959.50
2022-12-19T08:01:52.420Z,102974.03
2022-12-19T08:05:02.474Z,102966.72
2022-12-19T08:08:05.851Z,102962.22
2022-12-19T08:11:14.595Z,102966.13
2022-12-19T08:14:30.761Z,102980.22
2022-12-19T08:17:38.941Z,102975.44
2022-12-19T08:20:48.668Z,102982.56
2022-12-19T08:23:56.050Z,102984.09
2022-12-19T08:27:09.611Z,102974.22
2022-12-19T08:30:32.245Z,102975.53
2022-12-19T08:33:45.165Z,102981.69
2022-12-19T08:37:09.302Z,102963.97
2022-12-19T08:40:31.477Z,102963.78
2022-12-19T08:44:57.074Z,102950.50
2022-12-19T08:48:33.115Z,102954.41
2022-12-19T08:51:48.553Z,102959.91
2022-12-19T08:54:56.300Z,102941.94
2022-12-19T08:58:13.382Z,102936.28
2022-12-19T09:01:29.215Z,102950.22
2022-12-19T09:14:21.039Z,102946.19
2022-12-19T09:17:37.448Z,102933.88
2022-12-19T09:20:58.764Z,102941.00
2022-12-19T09:24:21.218Z,102951.47
2022-12-19T09:28:01.223Z,102956.56
2022-12-19T09:31:10.641Z,102972.84
2022-12-19T09:34:17.677Z,102957.03
2022-12-19T09:37:21.397Z,102947.88
2022-12-19T09:40:29.865Z,102934.53
2022-12-19T09:44:01.203Z,102927.66
2022-12-19T09:47:23.967Z,102930.38
2022-12-19T09:50:44.148Z,102915.56
2022-12-19T09:54:13.316Z,102911.72
2022-12-19T09:57:37.281Z,102916.31
2022-12-19T10:01:03.279Z,102910.31
2022-12-19T10:04:13.506Z,102902.88
2022-12-19T10:07:48.454Z,102896.09
2022-12-19T10:12:42.573Z,102899.09
2022-12-19T10:14:56.187Z,102892.28
2022-12-19T10:18:32.597Z,102893.94
2022-12-19T10:22:39.025Z,102891.59
2022-12-19T10:26:15.311Z,102906.25
2022-12-19T10:29:38.252Z,102900.56
2022-12-19T10:33:20.323Z,102891.38
2022-12-19T10:36:48.717Z,102878.66
2022-12-19T10:40:27.728Z,102874.25
2022-12-19T10:44:35.536Z,102886.13
2022-12-19T10:48:15.357Z,102868.47
2022-12-19T10:51:28.229Z,102862.97
2022-12-19T10:54:41.960Z,102864.94
2022-12-19T10:58:01.931Z,102866.53
2022-12-19T11:01:29.218Z,102856.84
2022-12-19T11:04:50.889Z,102856.13
2022-12-19T11:08:14.614Z,102844.00
2022-12-19T11:13:09.552Z,102844.19
2022-12-19T11:17:24.239Z,102849.31
2022-12-19T11:29:17.074Z,102851.16
2022-12-19T11:29:34.556Z,102857.16
2022-12-19T11:30:26.152Z,102844.84
2022-12-19T11:33:18.667Z,102829.88
2022-12-19T11:36:39.884Z,102828.38
2022-12-19T11:40:10.924Z,102825.53
2022-12-19T11:43:45.475Z,102815.78
2022-12-19T11:47:32.822Z,102804.00
2022-12-19T11:50:50.304Z,102794.00
2022-12-19T11:54:31.038Z,102798.25
2022-12-19T11:57:39.475Z,102795.16
2022-12-19T12:01:02.287Z,102793.00
2022-12-19T12:04:31.553Z,102781.66
2022-12-19T12:08:52.176Z,102787.66
2022-12-19T12:19:33.832Z,102781.09
2022-12-19T12:26:38.723Z,102782.25
2022-12-19T12:31:08.956Z,102776.94
2022-12-19T12:31:43.764Z,102766.19
2022-12-19T12:31:55.173Z,102770.63
2022-12-19T12:32:04.540Z,102775.16
2022-12-19T12:35:45.383Z,102775.81
2022-12-19T12:39:10.947Z,102762.78
2022-12-19T12:42:56.571Z,102767.25
2022-12-19T12:46:45.786Z,102780.66
2022-12-19T12:50:17.528Z,102775.81
2022-12-19T12:53:35.793Z,102764.16
2022-12-19T12:56:55.939Z,102765.84
2022-12-19T13:00:30.682Z,102756.50
2022-12-19T13:03:46.733Z,102763.03
2022-12-19T13:07:08.690Z,102760.41
2022-12-19T13:10:31.361Z,102755.78
2022-12-19T13:13:58.683Z,102751.94
2022-12-19T13:17:06.966Z,102749.84
2022-12-19T13:20:32.447Z,102753.31
2022-12-19T13:23:47.812Z,102750.00
2022-12-19T13:27:07.479Z,102750.94
2022-12-19T13:30:29.455Z,102757.16
2022-12-19T13:33:56.189Z,102741.47
2022-12-19T13:39:48.931Z,102732.81
2022-12-19T13:41:01.535Z,102734.94
2022-12-19T13:44:09.243Z,102724.06
2022-12-19T13:47:23.467Z,102727.56
2022-12-19T13:50:44.523Z,102734.84
2022-12-19T13:54:00.072Z,102741.44
2022-12-19T13:57:09.550Z,102748.66
2022-12-19T14:00:18.579Z,102733.47
2022-12-19T14:03:32.930Z,102727.97
2022-12-19T14:06:53.334Z,102726.47
2022-12-19T14:11:33.219Z,102732.97
2022-12-19T14:14:23.856Z,102730.56
2022-12-19T14:17:34.460Z,102724.31
2022-12-19T14:22:04.926Z,102736.84
2022-12-19T14:24:17.835Z,102725.47
2022-12-19T14:28:19.305Z,102728.47
2022-12-19T14:30:59.566Z,102730.19
2022-12-19T14:34:47.289Z,102734.34
2022-12-19T14:39:19.451Z,102723.00
2022-12-19T14:41:09.229Z,102723.50
2022-12-19T14:51:42.930Z,102733.53
2022-12-19T14:54:00.624Z,102732.38
2022-12-19T14:54:40.844Z,102733.00
2022-12-19T14:56:16.534Z,102732.00
2022-12-19T14:58:53.529Z,102727.00
2022-12-19T15:02:32.451Z,102726.00
2022-12-19T15:05:56.195Z,102728.97
2022-12-19T15:10:58.805Z,102726.31
2022-12-19T15:14:54.393Z,102727.84
2022-12-19T15:16:46.598Z,102741.31
2022-12-19T15:19:55.661Z,102748.81
2022-12-19T15:23:05.243Z,102747.78
2022-12-19T15:26:19.999Z,102740.63
2022-12-19T15:29:26.993Z,102737.31
2022-12-19T15:32:47.133Z,102738.31
2022-12-19T15:36:07.069Z,102750.97
2022-12-19T15:39:24.929Z,102746.63
2022-12-19T15:42:32.437Z,102749.97
2022-12-19T15:45:39.295Z,102746.09
2022-12-19T15:48:45.796Z,102733.47
2022-12-19T15:51:50.923Z,102740.41
2022-12-19T15:55:04.420Z,102732.13
2022-12-19T15:58:12.363Z,102732.13
2022-12-19T16:01:25.423Z,102734.81
2022-12-19T16:04:31.658Z,102729.94
2022-12-19T16:07:35.274Z,102726.44
2022-12-19T16:10:40.733Z,102733.13
2022-12-19T16:14:00.969Z,102723.31
2022-12-19T16:17:37.887Z,102722.78
2022-12-19T16:20:54.075Z,102712.94
2022-12-19T16:24:07.683Z,102717.94
2022-12-19T16:27:37.963Z,102712.78
2022-12-19T16:31:05.962Z,102711.94
2022-12-19T16:34:17.710Z,102712.66
2022-12-19T16:37:40.892Z,102713.84
2022-12-19T16:40:58.643Z,102704.97
2022-12-19T16:44:24.980Z,102698.50
2022-12-19T16:47:58.968Z,102685.19
2022-12-19T16:51:19.072Z,102695.47
2022-12-19T16:54:41.987Z,102696.47
2022-12-19T16:58:07.828Z,102696.00
2022-12-19T17:01:28.996Z,102688.69
2022-12-19T17:04:31.967Z,102701.69
2022-12-19T17:07:54.842Z,102699.16
2022-12-19T17:11:34.852Z,102707.81
2022-12-19T17:14:58.938Z,102706.50
2022-12-19T17:18:20.919Z,102703.16
2022-12-19T17:21:23.933Z,102698.34
2022-12-19T17:24:30.861Z,102703.31
2022-12-19T17:27:33.690Z,102706.00
2022-12-19T17:30:54.966Z,102715.69
2022-12-19T17:34:14.501Z,102708.34
2022-12-19T17:37:37.861Z,102709.66
2022-12-19T17:40:56.944Z,102711.19
2022-12-19T17:44:24.968Z,102718.00
2022-12-19T17:47:54.166Z,102717.81
2022-12-19T17:51:14.503Z,102719.16
2022-12-19T17:54:25.341Z,102722.50
2022-12-19T17:57:47.715Z,102713.81
2022-12-19T18:01:24.739Z,102710.53
2022-12-19T18:04:28.496Z,102709.50
2022-12-19T18:07:51.766Z,102708.34
2022-12-19T18:11:30.375Z,102713.00
2022-12-19T18:14:51.443Z,102708.81
2022-12-19T18:18:07.619Z,102709.69
2022-12-19T18:21:24.541Z,102705.31
2022-12-19T18:24:34.273Z,102700.81
2022-12-19T18:27:44.131Z,102718.00
2022-12-19T18:31:00.323Z,102718.84
2022-12-19T18:34:20.043Z,102713.69
2022-12-19T18:37:35.893Z,102711.84
2022-12-19T18:40:52.918Z,102687.69
2022-12-19T18:43:58.966Z,102682.00
2022-12-19T18:47:05.244Z,102677.00
2022-12-19T18:50:24.572Z,102671.69
2022-12-19T18:53:38.703Z,102657.00
2022-12-19T18:56:48.325Z,102657.66
2022-12-19T19:00:04.580Z,102658.66
2022-12-19T19:03:38.641Z,102649.69
2022-12-19T19:07:06.639Z,102659.69
2022-12-19T19:10:30.507Z,102650.00
2022-12-19T19:13:55.699Z,102648.69
2022-12-19T19:17:16.702Z,102648.38
2022-12-19T19:20:36.312Z,102637.69
2022-12-19T19:23:59.521Z,102644.19
2022-12-19T19:27:19.460Z,102651.19
2022-12-19T19:30:40.614Z,102642.50
2022-12-19T19:34:08.456Z,102641.34
2022-12-19T19:37:22.578Z,102636.19
2022-12-19T19:40:38.610Z,102642.03
2022-12-19T19:43:58.549Z,102639.84
2022-12-19T19:47:23.396Z,102629.19
2022-12-19T19:50:43.371Z,102622.03
2022-12-19T19:53:50.451Z,102622.72
2022-12-19T19:56:57.580Z,102618.06
2022-12-19T20:00:16.095Z,102613.56
2022-12-19T20:03:37.200Z,102619.38
2022-12-19T20:07:00.361Z,102627.16
2022-12-19T20:10:25.136Z,102629.88
2022-12-19T20:13:35.159Z,102634.19
2022-12-19T20:16:58.355Z,102639.16
2022-12-19T20:20:28.326Z,102636.66
2022-12-19T20:23:51.213Z,102646.03
2022-12-19T20:27:14.290Z,102654.31
2022-12-19T20:30:36.227Z,102642.38
2022-12-19T20:33:58.195Z,102637.34
2022-12-19T20:37:21.291Z,102625.88
2022-12-19T20:40:43.144Z,102623.38
2022-12-19T20:44:05.141Z,102626.72
2022-12-19T20:47:28.251Z,102618.06
2022-12-19T20:50:51.111Z,102621.19
2022-12-19T20:54:14.505Z,102623.22
2022-12-19T20:57:35.134Z,102628.03
2022-12-19T21:00:57.151Z,102627.72
2022-12-19T21:04:19.253Z,102623.56
2022-12-19T21:07:42.294Z,102617.38
2022-12-19T21:10:52.136Z,102624.19
2022-12-19T21:14:15.133Z,102617.00
2022-12-19T21:17:49.293Z,102614.88
2022-12-19T21:21:12.139Z,102620.31
2022-12-19T21:24:33.223Z,102619.28
2022-12-19T21:27:49.239Z,102623.13
2022-12-19T21:31:15.152Z,102622.66
2022-12-19T21:34:31.263Z,102614.00
2022-12-19T21:37:50.262Z,102611.03
2022-12-19T21:41:18.909Z,102600.41
2022-12-19T21:44:38.083Z,102597.72
2022-12-19T21:48:02.174Z,102601.69
2022-12-19T21:51:23.200Z,102597.50
2022-12-19T21:54:39.201Z,102596.88
2022-12-19T21:57:46.059Z,102603.84
2022-12-19T22:01:07.901Z,102615.72
2022-12-19T22:04:21.301Z,102615.50
2022-12-19T22:07:35.868Z,102619.31
2022-12-19T22:10:51.989Z,102616.53
2022-12-19T22:14:13.193Z,102610.69
2022-12-19T22:17:28.970Z,102598.91
2022-12-19T22:21:03.936Z,102592.22
2022-12-19T22:24:26.761Z,102590.75
2022-12-19T22:27:42.076Z,102575.75
2022-12-19T22:31:03.021Z,102573.09
2022-12-19T22:34:27.025Z,102563.94
2022-12-19T22:37:47.957Z,102566.28
2022-12-19T22:41:18.907Z,102561.78
2022-12-19T22:44:40.841Z,102558.94
2022-12-19T22:48:02.879Z,102563.13
2022-12-19T22:51:26.885Z,102554.28
2022-12-19T22:54:43.070Z,102540.28
2022-12-19T22:58:02.863Z,102519.81
2022-12-19T23:01:21.806Z,102514.81
2022-12-19T23:04:44.812Z,102512.66
2022-12-19T23:08:17.756Z,102508.00
2022-12-19T23:11:41.920Z,102517.16
2022-12-19T23:15:03.878Z,102525.63
2022-12-19T23:18:24.802Z,102527.81
2022-12-19T23:21:47.980Z,102518.31
2022-12-19T23:25:08.788Z,102506.75
2022-12-19T23:28:31.952Z,102508.94
2022-12-19T23:31:55.783Z,102513.78
2022-12-19T23:35:15.851Z,102515.78
2022-12-19T23:38:35.771Z,102513.78
2022-12-19T23:41:55.926Z,102510.78
2022-12-19T23:44:58.880Z,102514.16
2022-12-19T23:48:06.019Z,102497.78
2022-12-19T23:51:22.507Z,102494.59
2022-12-19T23:54:43.394Z,102499.25
2022-12-19T23:58:09.360Z,102499.59
